Time;durP1;ratioP1;P1;durP2;ratioP2;P2;SDS_P1;SDS_P2;PMS_P1;PMS_P2;Temp;Humidity;BMP_temperature;BMP_pressure;BME280_temperature;BME280_humidity;BME280_pressure;Samples;Min_cycle;Max_cycle;Signal;HPM_P1;HPM_P2
2022/09/11 00:01:51;;;;;;;10.03;6.77;;;;;;;;;;5068731;28;20608;-82
2022/09/11 00:04:20;;;;;;;8.07;6.57;;;;;;;;;;5063180;28;20209;-82
2022/09/11 00:06:47;;;;;;;10.80;6.57;;;;;;;;;;5061246;28;20243;-82
2022/09/11 00:09:14;;;;;;;8.47;6.30;;;;;;;;;;5052442;28;20240;-82
2022/09/11 00:11:42;;;;;;;7.50;5.80;;;;;;;;;;5052540;28;20239;-82
2022/09/11 00:14:11;;;;;;;8.67;6.40;;;;;;;;;;5052255;28;20717;-83
2022/09/11 00:16:40;;;;;;;8.20;5.90;;;;;;;;;;5060018;28;20274;-82
2022/09/11 00:19:08;;;;;;;11.97;6.60;;;;;;;;;;5072326;28;20242;-83
2022/09/11 00:21:36;;;;;;;8.67;6.13;;;;;;;;;;5067927;28;20235;-82
2022/09/11 00:24:04;;;;;;;10.00;6.13;;;;;;;;;;5055429;28;20236;-82
2022/09/11 00:26:31;;;;;;;10.00;6.07;;;;;;;;;;5065055;28;20297;-82
2022/09/11 00:29:00;;;;;;;8.73;5.73;;;;;;;;;;5072375;28;20260;-82
2022/09/11 00:31:28;;;;;;;7.47;5.47;;;;;;;;;;5071882;28;20206;-81
2022/09/11 00:33:56;;;;;;;8.00;5.90;;;;;;;;;;5072175;28;20237;-82
2022/09/11 00:36:24;;;;;;;8.70;6.30;;;;;;;;;;5059244;28;20278;-82
2022/09/11 00:38:54;;;;;;;10.30;6.60;;;;;;;;;;5052547;28;20242;-82
2022/09/11 00:41:23;;;;;;;10.27;6.30;;;;;;;;;;5052606;28;20569;-82
2022/09/11 00:43:55;;;;;;;9.13;6.00;;;;;;;;;;5052278;28;20231;-82
2022/09/11 00:46:23;;;;;;;11.43;6.70;;;;;;;;;;5051966;28;20222;-82
2022/09/11 00:48:50;;;;;;;10.57;6.50;;;;;;;;;;5071614;28;20233;-82
2022/09/11 00:51:19;;;;;;;7.97;6.27;;;;;;;;;;5058661;28;20199;-82
2022/09/11 00:53:47;;;;;;;11.67;6.50;;;;;;;;;;5052133;28;20803;-82
2022/09/11 00:56:15;;;;;;;10.70;6.00;;;;;;;;;;5052474;28;20286;-82
2022/09/11 00:58:44;;;;;;;10.30;6.40;;;;;;;;;;5063396;28;20364;-82
2022/09/11 01:01:13;;;;;;;9.13;6.00;;;;;;;;;;5071852;28;20302;-82
2022/09/11 01:03:41;;;;;;;10.23;6.63;;;;;;;;;;5070350;28;20241;-82
2022/09/11 01:06:09;;;;;;;9.03;5.93;;;;;;;;;;5059210;28;20750;-82
2022/09/11 01:08:36;;;;;;;9.83;6.40;;;;;;;;;;5051637;28;20196;-82
2022/09/11 01:11:07;;;;;;;10.90;6.40;;;;;;;;;;5051819;28;20246;-82
2022/09/11 01:13:37;;;;;;;7.70;5.90;;;;;;;;;;5051595;28;20204;-82
2022/09/11 01:16:10;;;;;;;7.93;5.73;;;;;;;;;;5051860;28;20709;-82
2022/09/11 01:18:40;;;;;;;9.00;5.90;;;;;;;;;;5052017;28;20196;-82
2022/09/11 01:21:19;;;;;;;6.77;5.63;;;;;;;;;;5059458;28;20230;-82
2022/09/11 01:23:57;;;;;;;7.70;5.57;;;;;;;;;;5051600;28;20656;-82
2022/09/11 01:26:35;;;;;;;8.03;5.90;;;;;;;;;;5058960;28;20194;-82
2022/09/11 01:29:07;;;;;;;6.77;5.60;;;;;;;;;;5070860;28;20233;-82
2022/09/11 01:31:37;;;;;;;8.90;6.23;;;;;;;;;;5071767;28;20234;-82
2022/09/11 01:34:06;;;;;;;6.73;5.70;;;;;;;;;;5071519;28;20230;-82
2022/09/11 01:36:37;;;;;;;7.73;6.20;;;;;;;;;;5071614;28;20750;-82
2022/09/11 01:39:05;;;;;;;7.63;6.23;;;;;;;;;;5068229;28;20192;-82
2022/09/11 01:41:34;;;;;;;9.83;6.00;;;;;;;;;;5069194;28;20235;-82
2022/09/11 01:44:05;;;;;;;7.80;6.27;;;;;;;;;;5073223;28;20262;-83
2022/09/11 01:46:39;;;;;;;11.13;5.73;;;;;;;;;;5075218;28;20203;-83
2022/09/11 01:49:09;;;;;;;8.67;5.80;;;;;;;;;;5075180;28;20195;-82
2022/09/11 01:51:37;;;;;;;9.03;6.00;;;;;;;;;;5073776;28;20235;-82
2022/09/11 01:54:08;;;;;;;6.10;5.50;;;;;;;;;;5055419;28;20196;-83
2022/09/11 01:56:36;;;;;;;9.53;6.10;;;;;;;;;;5071581;28;20290;-82
2022/09/11 01:59:06;;;;;;;8.53;5.93;;;;;;;;;;5074830;28;20348;-82
2022/09/11 02:01:37;;;;;;;7.57;5.97;;;;;;;;;;5064684;28;20227;-82
2022/09/11 02:04:07;;;;;;;9.80;6.07;;;;;;;;;;5055369;28;20204;-82
2022/09/11 02:06:37;;;;;;;9.67;6.30;;;;;;;;;;5054646;28;20204;-83
2022/09/11 02:09:06;;;;;;;10.73;6.60;;;;;;;;;;5054863;28;20632;-83
2022/09/11 02:11:37;;;;;;;10.50;6.20;;;;;;;;;;5054592;28;20680;-82
2022/09/11 02:14:06;;;;;;;9.77;6.13;;;;;;;;;;5075023;28;20286;-82
2022/09/11 02:16:41;;;;;;;9.17;6.13;;;;;;;;;;5074876;28;20234;-82
2022/09/11 02:19:11;;;;;;;8.53;6.83;;;;;;;;;;5054687;28;20635;-82
2022/09/11 02:21:38;;;;;;;10.23;6.80;;;;;;;;;;5053805;28;20763;-82
2022/09/11 02:24:05;;;;;;;8.13;6.33;;;;;;;;;;5053796;28;20254;-82
2022/09/11 02:26:34;;;;;;;9.67;6.83;;;;;;;;;;5056283;28;20204;-82
2022/09/11 02:29:04;;;;;;;11.33;7.13;;;;;;;;;;5074082;28;20227;-82
2022/09/11 02:31:31;;;;;;;12.27;6.80;;;;;;;;;;5074143;28;20278;-82
2022/09/11 02:34:00;;;;;;;9.57;6.47;;;;;;;;;;5074517;28;20241;-82
2022/09/11 02:36:39;;;;;;;10.83;6.60;;;;;;;;;;5071580;28;20198;-82
2022/09/11 02:39:17;;;;;;;8.50;5.93;;;;;;;;;;5065254;28;20202;-82
2022/09/11 02:41:49;;;;;;;10.50;6.90;;;;;;;;;;5071947;28;20284;-82
2022/09/11 02:44:22;;;;;;;9.50;6.20;;;;;;;;;;5066145;28;20241;-82
2022/09/11 02:46:56;;;;;;;9.23;7.03;;;;;;;;;;5054517;28;20286;-82
2022/09/11 02:49:28;;;;;;;9.83;6.20;;;;;;;;;;5054476;28;20206;-82
2022/09/11 02:52:01;;;;;;;8.83;6.50;;;;;;;;;;5054308;28;20282;-82
2022/09/11 02:54:32;;;;;;;8.03;6.27;;;;;;;;;;5053909;28;20680;-82
2022/09/11 02:57:02;;;;;;;9.23;6.30;;;;;;;;;;5053578;28;20200;-82
2022/09/11 02:59:32;;;;;;;9.63;5.90;;;;;;;;;;5066449;28;20306;-82
2022/09/11 03:02:00;;;;;;;6.10;5.37;;;;;;;;;;5073567;28;20199;-82
2022/09/11 03:04:30;;;;;;;6.47;5.13;;;;;;;;;;5073577;28;20210;-83
2022/09/11 03:06:58;;;;;;;6.70;5.10;;;;;;;;;;5074041;28;20297;-82
2022/09/11 03:09:25;;;;;;;7.70;5.40;;;;;;;;;;5073196;28;20675;-81
2022/09/11 03:11:52;;;;;;;9.27;5.83;;;;;;;;;;5071544;28;20207;-83
2022/09/11 03:14:20;;;;;;;9.63;5.80;;;;;;;;;;5074042;28;20282;-82
2022/09/11 03:16:47;;;;;;;6.70;5.17;;;;;;;;;;5064823;28;20231;-82
2022/09/11 03:19:14;;;;;;;9.97;5.70;;;;;;;;;;5073182;28;20234;-82
2022/09/11 03:21:43;;;;;;;9.73;6.03;;;;;;;;;;5072070;28;20268;-82
2022/09/11 03:24:11;;;;;;;7.00;5.77;;;;;;;;;;5053138;28;20750;-82
2022/09/11 03:26:39;;;;;;;7.87;5.47;;;;;;;;;;5072889;28;20195;-83
2022/09/11 03:29:07;;;;;;;9.23;5.73;;;;;;;;;;5073221;28;20318;-82
2022/09/11 03:31:34;;;;;;;6.53;5.53;;;;;;;;;;5068190;28;20235;-82
2022/09/11 03:34:01;;;;;;;7.80;5.37;;;;;;;;;;5053037;28;20278;-82
2022/09/11 03:36:28;;;;;;;5.60;4.93;;;;;;;;;;5055560;28;20196;-82
2022/09/11 03:38:57;;;;;;;6.07;5.17;;;;;;;;;;5072985;28;20282;-82
2022/09/11 03:41:25;;;;;;;7.80;5.57;;;;;;;;;;5073422;28;20634;-82
2022/09/11 03:43:52;;;;;;;8.60;5.90;;;;;;;;;;5064972;28;20242;-82
2022/09/11 03:46:19;;;;;;;8.10;5.80;;;;;;;;;;5053205;28;20249;-82
2022/09/11 03:48:47;;;;;;;9.60;5.87;;;;;;;;;;5055075;28;20315;-82
2022/09/11 03:51:14;;;;;;;9.10;5.97;;;;;;;;;;5072741;28;20199;-82
2022/09/11 03:53:43;;;;;;;8.63;6.30;;;;;;;;;;5072452;28;20203;-82
2022/09/11 03:56:13;;;;;;;8.63;6.43;;;;;;;;;;5072797;28;20225;-82
2022/09/11 03:58:42;;;;;;;7.53;6.47;;;;;;;;;;5061621;28;20221;-82
2022/09/11 04:01:11;;;;;;;8.23;6.27;;;;;;;;;;5052722;28;20207;-82
2022/09/11 04:03:38;;;;;;;8.20;6.60;;;;;;;;;;5059349;28;20203;-82
2022/09/11 04:06:06;;;;;;;10.80;5.80;;;;;;;;;;5065710;28;20815;-82
2022/09/11 04:08:33;;;;;;;8.83;5.83;;;;;;;;;;5070132;28;20639;-82
2022/09/11 04:11:01;;;;;;;8.03;6.10;;;;;;;;;;5072623;28;20195;-82
2022/09/11 04:13:31;;;;;;;7.67;5.70;;;;;;;;;;5072470;28;20195;-82
2022/09/11 04:16:01;;;;;;;6.77;5.60;;;;;;;;;;5072662;28;20207;-82
2022/09/11 04:18:29;;;;;;;7.60;5.63;;;;;;;;;;5071794;28;20191;-82
2022/09/11 04:20:56;;;;;;;8.00;5.77;;;;;;;;;;5072279;28;20290;-82
2022/09/11 04:23:24;;;;;;;8.57;6.10;;;;;;;;;;5071588;28;20230;-82
2022/09/11 04:25:52;;;;;;;7.27;5.77;;;;;;;;;;5072324;28;20199;-83
2022/09/11 04:28:19;;;;;;;8.83;6.20;;;;;;;;;;5072581;28;20301;-82
2022/09/11 04:30:47;;;;;;;7.70;6.23;;;;;;;;;;5072656;28;20290;-83
2022/09/11 04:33:15;;;;;;;9.57;6.93;;;;;;;;;;5072731;28;20295;-82
2022/09/11 04:35:42;;;;;;;10.50;6.80;;;;;;;;;;5072188;28;20242;-82
2022/09/11 04:38:09;;;;;;;9.77;6.60;;;;;;;;;;5072270;28;20249;-82
2022/09/11 04:40:36;;;;;;;11.87;6.50;;;;;;;;;;5068214;28;20238;-82
2022/09/11 04:43:05;;;;;;;8.43;6.23;;;;;;;;;;5071446;28;20266;-82
2022/09/11 04:45:32;;;;;;;9.67;6.60;;;;;;;;;;5061214;28;20347;-82
2022/09/11 04:48:01;;;;;;;9.60;6.73;;;;;;;;;;5071297;28;20214;-81
2022/09/11 04:50:30;;;;;;;8.63;7.07;;;;;;;;;;5071671;28;20237;-82
2022/09/11 04:52:57;;;;;;;8.80;6.70;;;;;;;;;;5071604;28;20203;-82
2022/09/11 04:55:25;;;;;;;10.17;6.80;;;;;;;;;;5072152;28;20636;-82
2022/09/11 04:57:52;;;;;;;7.63;6.23;;;;;;;;;;5070937;28;20215;-82
2022/09/11 05:00:20;;;;;;;7.47;6.20;;;;;;;;;;5058214;28;20195;-82
2022/09/11 05:02:48;;;;;;;8.40;5.97;;;;;;;;;;5071837;28;20282;-82
2022/09/11 05:05:16;;;;;;;8.23;6.20;;;;;;;;;;5071336;28;20199;-82
2022/09/11 05:07:44;;;;;;;11.13;5.70;;;;;;;;;;5071223;28;20226;-82
2022/09/11 05:10:11;;;;;;;9.57;5.67;;;;;;;;;;5071587;28;20265;-82
2022/09/11 05:12:38;;;;;;;8.50;5.90;;;;;;;;;;5058219;28;20203;-82
2022/09/11 05:15:06;;;;;;;10.73;6.57;;;;;;;;;;5067971;28;20206;-82
2022/09/11 05:17:33;;;;;;;8.63;6.13;;;;;;;;;;5065004;28;20278;-82
2022/09/11 05:20:00;;;;;;;9.33;6.13;;;;;;;;;;5075777;28;20693;-82
2022/09/11 05:22:29;;;;;;;7.90;6.23;;;;;;;;;;5070069;28;20228;-82
2022/09/11 05:24:57;;;;;;;9.60;6.73;;;;;;;;;;5056004;28;20249;-82
2022/09/11 05:27:24;;;;;;;8.60;6.67;;;;;;;;;;5070866;28;20199;-83
2022/09/11 05:29:51;;;;;;;7.87;6.10;;;;;;;;;;5074930;28;20314;-82
2022/09/11 05:32:18;;;;;;;10.83;7.07;;;;;;;;;;5075801;28;20199;-82
2022/09/11 05:34:45;;;;;;;9.70;6.57;;;;;;;;;;5074534;28;20733;-81
2022/09/11 05:37:13;;;;;;;7.93;6.73;;;;;;;;;;5070247;28;20228;-82
2022/09/11 05:39:41;;;;;;;10.47;7.60;;;;;;;;;;5055809;28;20227;-82
2022/09/11 05:42:08;;;;;;;10.00;7.50;;;;;;;;;;5057610;28;20196;-82
2022/09/11 05:44:36;;;;;;;10.20;7.53;;;;;;;;;;5075340;28;20321;-82
2022/09/11 05:47:04;;;;;;;8.90;7.20;;;;;;;;;;5075291;28;20195;-82
2022/09/11 05:49:31;;;;;;;11.83;7.33;;;;;;;;;;5074197;28;20223;-83
2022/09/11 05:51:58;;;;;;;10.07;7.63;;;;;;;;;;5074733;28;20628;-82
2022/09/11 05:54:26;;;;;;;12.70;8.57;;;;;;;;;;5075659;28;20253;-82
2022/09/11 05:56:54;;;;;;;12.30;8.97;;;;;;;;;;5075372;28;20199;-82
2022/09/11 05:59:21;;;;;;;14.33;8.70;;;;;;;;;;5074676;28;20257;-83
2022/09/11 06:01:49;;;;;;;12.47;8.90;;;;;;;;;;5074717;28;20238;-82
2022/09/11 06:04:18;;;;;;;11.23;8.43;;;;;;;;;;5074744;28;20320;-81
2022/09/11 06:06:46;;;;;;;11.47;9.20;;;;;;;;;;5075278;28;20202;-82
2022/09/11 06:09:14;;;;;;;14.80;8.87;;;;;;;;;;5074215;28;20262;-82
2022/09/11 06:11:41;;;;;;;13.53;9.13;;;;;;;;;;5075056;28;20205;-82
2022/09/11 06:14:12;;;;;;;12.57;8.53;;;;;;;;;;5074903;28;20290;-82
2022/09/11 06:16:39;;;;;;;11.90;8.60;;;;;;;;;;5073686;28;20563;-82
2022/09/11 06:19:07;;;;;;;15.37;9.13;;;;;;;;;;5074881;28;20209;-81
2022/09/11 06:21:34;;;;;;;10.10;8.63;;;;;;;;;;5074766;28;20285;-82
2022/09/11 06:24:01;;;;;;;11.53;8.73;;;;;;;;;;5059141;28;20200;-82
2022/09/11 06:26:29;;;;;;;12.07;7.90;;;;;;;;;;5054426;28;20231;-82
2022/09/11 06:28:57;;;;;;;8.87;7.90;;;;;;;;;;5064054;28;20218;-82
2022/09/11 06:31:26;;;;;;;10.17;8.07;;;;;;;;;;5074716;28;20226;-81
2022/09/11 06:33:53;;;;;;;9.47;7.83;;;;;;;;;;5072784;28;20241;-82
2022/09/11 06:36:22;;;;;;;15.07;8.70;;;;;;;;;;5074163;28;20728;-81
2022/09/11 06:38:53;;;;;;;14.00;8.97;;;;;;;;;;5071302;28;20210;-82
2022/09/11 06:41:21;;;;;;;11.40;8.83;;;;;;;;;;5072492;28;20191;-81
2022/09/11 06:43:49;;;;;;;16.17;9.13;;;;;;;;;;5073852;28;20239;-81
2022/09/11 06:46:18;;;;;;;14.27;9.23;;;;;;;;;;5074425;28;20300;-81
2022/09/11 06:48:48;;;;;;;8.80;7.70;;;;;;;;;;5056090;28;20223;-81
2022/09/11 06:51:16;;;;;;;10.50;7.70;;;;;;;;;;5054268;28;20195;-81
2022/09/11 06:53:44;;;;;;;8.47;5.90;;;;;;;;;;5054435;28;20239;-81
2022/09/11 06:56:12;;;;;;;7.60;5.57;;;;;;;;;;5065931;28;20282;-81
2022/09/11 06:58:40;;;;;;;7.80;4.70;;;;;;;;;;5073457;28;20721;-82
2022/09/11 07:01:07;;;;;;;5.47;4.55;;;;;;;;;;5073436;28;20202;-82
2022/09/11 07:03:36;;;;;;;6.45;4.32;;;;;;;;;;5069273;28;20226;-82
2022/09/11 07:06:06;;;;;;;5.20;4.10;;;;;;;;;;5081499;28;20209;-82
2022/09/11 07:08:34;;;;;;;7.05;4.20;;;;;;;;;;5073858;28;20315;-82
2022/09/11 07:11:03;;;;;;;7.93;4.40;;;;;;;;;;5073242;28;20290;-81
2022/09/11 07:13:31;;;;;;;5.60;3.80;;;;;;;;;;5068704;28;20200;-81
2022/09/11 07:16:01;;;;;;;4.97;3.63;;;;;;;;;;5053331;28;20290;-80
2022/09/11 07:18:33;;;;;;;6.18;3.40;;;;;;;;;;5053657;28;20236;-81
2022/09/11 07:21:00;;;;;;;5.13;3.70;;;;;;;;;;5053634;28;20196;-82
2022/09/11 07:23:28;;;;;;;5.72;3.40;;;;;;;;;;5053436;28;20330;-81
2022/09/11 07:25:57;;;;;;;5.68;3.67;;;;;;;;;;5053720;28;20235;-81
2022/09/11 07:28:25;;;;;;;4.40;2.92;;;;;;;;;;5056720;28;20294;-81
2022/09/11 07:30:52;;;;;;;4.40;3.03;;;;;;;;;;5064006;28;20279;-81
2022/09/11 07:33:21;;;;;;;5.00;2.90;;;;;;;;;;5072477;28;20243;-81
2022/09/11 07:35:50;;;;;;;4.97;3.25;;;;;;;;;;5062962;28;20207;-81
2022/09/11 07:38:17;;;;;;;4.68;2.90;;;;;;;;;;5064989;28;20236;-81
2022/09/11 07:40:45;;;;;;;3.60;2.63;;;;;;;;;;5054191;28;20250;-82
2022/09/11 07:43:14;;;;;;;3.00;2.53;;;;;;;;;;5063910;28;20293;-81
2022/09/11 07:45:41;;;;;;;4.95;2.72;;;;;;;;;;5054642;28;20207;-82
2022/09/11 07:48:08;;;;;;;3.28;2.05;;;;;;;;;;5059472;28;20204;-82
2022/09/11 07:50:35;;;;;;;3.20;1.80;;;;;;;;;;5064880;28;20215;-83
2022/09/11 07:53:02;;;;;;;4.95;1.73;;;;;;;;;;5073002;28;20640;-83
2022/09/11 07:55:30;;;;;;;3.08;1.60;;;;;;;;;;5071289;28;20309;-83
2022/09/11 07:57:58;;;;;;;3.13;2.30;;;;;;;;;;5068330;28;20297;-83
2022/09/11 08:00:26;;;;;;;5.13;1.80;;;;;;;;;;5061142;28;20853;-83
2022/09/11 08:02:53;;;;;;;3.15;1.58;;;;;;;;;;5067209;28;20203;-82
2022/09/11 08:05:20;;;;;;;3.15;1.88;;;;;;;;;;5057276;28;20200;-83
2022/09/11 08:07:47;;;;;;;4.28;1.63;;;;;;;;;;5061210;28;20249;-83
2022/09/11 08:10:15;;;;;;;2.38;1.40;;;;;;;;;;5072293;28;20309;-83
2022/09/11 08:12:42;;;;;;;3.53;1.50;;;;;;;;;;5064941;28;20282;-83
2022/09/11 08:15:17;;;;;;;2.85;1.55;;;;;;;;;;5069256;28;20234;-83
2022/09/11 08:17:44;;;;;;;4.22;1.73;;;;;;;;;;5069345;28;20198;-83
2022/09/11 08:20:12;;;;;;;3.40;1.30;;;;;;;;;;5071144;28;20659;-83
2022/09/11 08:22:40;;;;;;;3.10;1.58;;;;;;;;;;5069065;28;20198;-83
2022/09/11 08:25:08;;;;;;;3.90;1.60;;;;;;;;;;5054012;28;20211;-83
2022/09/11 08:27:36;;;;;;;3.03;1.40;;;;;;;;;;5067215;28;20665;-83
2022/09/11 08:30:04;;;;;;;2.88;1.55;;;;;;;;;;5072007;28;20260;-83
2022/09/11 08:32:32;;;;;;;2.78;1.40;;;;;;;;;;5065260;28;20274;-83
2022/09/11 08:35:00;;;;;;;2.88;1.40;;;;;;;;;;5060528;28;20231;-83
2022/09/11 08:37:27;;;;;;;2.70;1.55;;;;;;;;;;5072316;28;20246;-83
2022/09/11 08:39:55;;;;;;;2.92;1.48;;;;;;;;;;5054175;28;20203;-83
2022/09/11 08:42:22;;;;;;;2.78;1.50;;;;;;;;;;5058676;28;20203;-83
2022/09/11 08:44:51;;;;;;;2.60;1.30;;;;;;;;;;5057560;28;20314;-83
2022/09/11 08:47:21;;;;;;;2.58;1.50;;;;;;;;;;5069129;28;20230;-83
2022/09/11 08:49:54;;;;;;;3.53;1.50;;;;;;;;;;5067361;28;20659;-83
2022/09/11 08:52:21;;;;;;;3.47;1.35;;;;;;;;;;5068535;28;21197;-84
2022/09/11 08:54:49;;;;;;;2.78;1.50;;;;;;;;;;5078598;28;20199;-82
2022/09/11 08:57:19;;;;;;;2.83;1.35;;;;;;;;;;5065461;28;20260;-83
2022/09/11 08:59:55;;;;;;;2.40;1.30;;;;;;;;;;5068908;28;20261;-83
2022/09/11 09:02:27;;;;;;;3.63;1.40;;;;;;;;;;5074087;28;20195;-82
2022/09/11 09:05:04;;;;;;;2.90;1.25;;;;;;;;;;5071724;28;20234;-83
2022/09/11 09:07:34;;;;;;;1.60;1.20;;;;;;;;;;5074931;28;20698;-82
2022/09/11 09:10:03;;;;;;;3.13;1.40;;;;;;;;;;5075979;28;20752;-83
2022/09/11 09:12:34;;;;;;;2.40;1.25;;;;;;;;;;5060754;28;20226;-83
2022/09/11 09:15:09;;;;;;;2.47;1.30;;;;;;;;;;5060699;28;20212;-83
2022/09/11 09:17:40;;;;;;;4.45;1.50;;;;;;;;;;5062653;28;20199;-83
2022/09/11 09:20:11;;;;;;;2.78;1.20;;;;;;;;;;5060443;28;20245;-85
2022/09/11 09:22:40;;;;;;;3.70;1.30;;;;;;;;;;5059069;28;20216;-85
2022/09/11 09:25:11;;;;;;;1.65;1.10;;;;;;;;;;5068120;28;20245;-85
2022/09/11 09:27:40;;;;;;;3.05;1.10;;;;;;;;;;5061636;28;20245;-85
2022/09/11 09:30:14;;;;;;;1.35;1.10;;;;;;;;;;5074211;28;20654;-84
2022/09/11 09:32:44;;;;;;;2.10;1.00;;;;;;;;;;5064012;28;20233;-85
2022/09/11 09:35:15;;;;;;;2.45;1.30;;;;;;;;;;5063739;28;20223;-85
2022/09/11 09:37:44;;;;;;;2.50;1.02;;;;;;;;;;5065325;28;20283;-85
2022/09/11 09:40:16;;;;;;;2.65;1.00;;;;;;;;;;5069248;28;20206;-84
2022/09/11 09:42:51;;;;;;;4.05;1.40;;;;;;;;;;5067878;28;20280;-84
2022/09/11 09:45:36;;;;;;;2.33;0.90;;;;;;;;;;5071022;28;20248;-83
2022/09/11 09:48:04;;;;;;;3.58;1.25;;;;;;;;;;5062399;28;20198;-84
2022/09/11 09:50:34;;;;;;;1.48;1.10;;;;;;;;;;5061278;28;20219;-83
2022/09/11 09:53:04;;;;;;;2.25;1.20;;;;;;;;;;5070260;28;20289;-84
2022/09/11 09:55:34;;;;;;;3.20;1.15;;;;;;;;;;5062895;28;20202;-84
2022/09/11 09:58:01;;;;;;;3.88;1.40;;;;;;;;;;5062746;28;20224;-84
2022/09/11 10:00:31;;;;;;;2.22;1.00;;;;;;;;;;5073639;28;20554;-87
2022/09/11 10:02:58;;;;;;;2.17;1.00;;;;;;;;;;5073861;28;20203;-87
2022/09/11 10:05:27;;;;;;;2.75;1.10;;;;;;;;;;5068908;28;20298;-86
2022/09/11 10:07:57;;;;;;;2.58;1.20;;;;;;;;;;5066129;28;20680;-86
2022/09/11 10:10:25;;;;;;;2.75;1.10;;;;;;;;;;5063328;28;20271;-84
2022/09/11 10:12:53;;;;;;;2.65;1.10;;;;;;;;;;5072198;28;20299;-85
2022/09/11 10:15:21;;;;;;;2.47;1.20;;;;;;;;;;5066707;28;20191;-85
2022/09/11 10:17:49;;;;;;;2.50;1.00;;;;;;;;;;5066419;28;20278;-85
2022/09/11 10:20:22;;;;;;;2.38;1.60;;;;;;;;;;5072901;28;20210;-84
2022/09/11 10:22:50;;;;;;;2.95;1.30;;;;;;;;;;5067591;28;20246;-85
2022/09/11 10:25:21;;;;;;;2.03;1.10;;;;;;;;;;5066005;28;20278;-85
2022/09/11 10:27:52;;;;;;;1.98;1.25;;;;;;;;;;5065417;28;20207;-84
2022/09/11 10:30:27;;;;;;;3.28;1.20;;;;;;;;;;5067936;28;20302;-84
2022/09/11 10:32:55;;;;;;;2.17;1.17;;;;;;;;;;5057618;28;20295;-84
2022/09/11 10:35:24;;;;;;;1.50;1.10;;;;;;;;;;5074433;28;20286;-85
2022/09/11 10:38:00;;;;;;;1.60;1.15;;;;;;;;;;5071309;28;20273;-86
2022/09/11 10:40:29;;;;;;;3.38;1.33;;;;;;;;;;5073921;28;20191;-86
2022/09/11 10:42:57;;;;;;;4.28;1.67;;;;;;;;;;5062715;28;20272;-85
2022/09/11 10:45:24;;;;;;;3.03;1.38;;;;;;;;;;5074244;28;20608;-86
2022/09/11 10:47:51;;;;;;;4.95;1.70;;;;;;;;;;5074378;28;20237;-85
2022/09/11 10:50:20;;;;;;;3.45;2.25;;;;;;;;;;5073875;28;20635;-86
2022/09/11 10:52:50;;;;;;;2.85;2.55;;;;;;;;;;5074296;28;20219;-85
2022/09/11 10:55:18;;;;;;;4.15;3.53;;;;;;;;;;5063759;28;20231;-85
2022/09/11 10:57:49;;;;;;;4.28;1.10;;;;;;;;;;5067223;28;20658;-85
2022/09/11 11:00:19;;;;;;;3.10;2.33;;;;;;;;;;5053872;28;20223;-84
2022/09/11 11:02:47;;;;;;;3.47;1.25;;;;;;;;;;5065930;28;20690;-84
2022/09/11 11:05:19;;;;;;;2.10;1.20;;;;;;;;;;5073936;28;20292;-83
2022/09/11 11:08:02;;;;;;;1.92;1.08;;;;;;;;;;5074156;28;20207;-85
2022/09/11 11:10:35;;;;;;;1.88;1.10;;;;;;;;;;5073647;28;20258;-85
2022/09/11 11:13:12;;;;;;;2.13;1.00;;;;;;;;;;5073468;28;20230;-85
2022/09/11 11:15:48;;;;;;;1.60;1.17;;;;;;;;;;5072525;28;20206;-84
2022/09/11 11:18:23;;;;;;;1.40;0.90;;;;;;;;;;5071961;28;20241;-85
2022/09/11 11:20:54;;;;;;;1.83;1.13;;;;;;;;;;5053748;28;20559;-85
2022/09/11 11:23:36;;;;;;;2.83;1.40;;;;;;;;;;5053398;28;20200;-85
2022/09/11 11:26:12;;;;;;;3.85;1.17;;;;;;;;;;5051611;28;20687;-84
2022/09/11 11:28:55;;;;;;;2.60;0.90;;;;;;;;;;5053057;28;20691;-85
2022/09/11 11:31:30;;;;;;;1.98;0.88;;;;;;;;;;5062245;28;20254;-85
2022/09/11 11:34:09;;;;;;;2.70;1.00;;;;;;;;;;5059356;28;20199;-85
2022/09/11 11:36:40;;;;;;;1.67;1.00;;;;;;;;;;5063958;28;20279;-82
2022/09/11 11:39:14;;;;;;;2.40;0.93;;;;;;;;;;5071875;28;20603;-84
2022/09/11 11:41:43;;;;;;;0.98;0.70;;;;;;;;;;5060310;28;20265;-84
2022/09/11 11:44:15;;;;;;;3.10;1.00;;;;;;;;;;5052666;28;20231;-84
2022/09/11 11:46:45;;;;;;;2.10;1.00;;;;;;;;;;5062030;28;20205;-84
2022/09/11 11:49:18;;;;;;;2.22;0.90;;;;;;;;;;5072235;28;20198;-84
2022/09/11 11:51:48;;;;;;;2.53;0.95;;;;;;;;;;5072405;28;20654;-84
2022/09/11 11:54:18;;;;;;;2.40;1.38;;;;;;;;;;5072645;28;20333;-84
2022/09/11 11:56:47;;;;;;;2.58;0.90;;;;;;;;;;5072665;28;20706;-84
2022/09/11 11:59:21;;;;;;;3.50;0.82;;;;;;;;;;5074169;28;20301;-83
2022/09/11 12:01:51;;;;;;;2.72;0.93;;;;;;;;;;5061891;28;20227;-84
2022/09/11 12:04:23;;;;;;;1.13;0.90;;;;;;;;;;5072252;28;20226;-83
2022/09/11 12:06:50;;;;;;;1.75;0.70;;;;;;;;;;5061009;28;20195;-84
2022/09/11 12:09:18;;;;;;;2.90;0.82;;;;;;;;;;5059599;28;20667;-83
2022/09/11 12:11:47;;;;;;;1.92;0.90;;;;;;;;;;5052643;28;20216;-84
2022/09/11 12:14:25;;;;;;;1.55;0.80;;;;;;;;;;5060761;28;20227;-84
2022/09/11 12:16:52;;;;;;;2.35;1.00;;;;;;;;;;5065599;28;20702;-84
2022/09/11 12:19:22;;;;;;;2.40;0.90;;;;;;;;;;5067889;28;20199;-84
2022/09/11 12:22:06;;;;;;;1.63;0.60;;;;;;;;;;5066297;28;20726;-84
2022/09/11 12:24:51;;;;;;;2.22;0.90;;;;;;;;;;5052240;28;20195;-83
2022/09/11 12:27:37;;;;;;;2.25;0.90;;;;;;;;;;5067423;28;20203;-83
2022/09/11 12:30:10;;;;;;;1.65;0.80;;;;;;;;;;5066429;28;20284;-84
2022/09/11 12:32:42;;;;;;;1.98;0.90;;;;;;;;;;5058128;28;20195;-84
2022/09/11 12:35:18;;;;;;;1.90;0.80;;;;;;;;;;5070707;28;20667;-83
2022/09/11 12:37:49;;;;;;;2.05;1.17;;;;;;;;;;5069294;28;20202;-83
2022/09/11 12:40:19;;;;;;;2.08;1.02;;;;;;;;;;5060556;28;20202;-83
2022/09/11 12:42:47;;;;;;;1.50;0.80;;;;;;;;;;5053795;28;20230;-83
2022/09/11 12:45:29;;;;;;;1.48;0.70;;;;;;;;;;5052359;28;20578;-83
2022/09/11 12:48:03;;;;;;;1.60;0.90;;;;;;;;;;5061372;28;20237;-83
2022/09/11 12:50:30;;;;;;;1.88;0.70;;;;;;;;;;5058738;28;20220;-83
2022/09/11 12:53:01;;;;;;;3.85;0.80;;;;;;;;;;5071042;28;20207;-83
2022/09/11 12:55:34;;;;;;;2.13;0.77;;;;;;;;;;5070259;28;20554;-84
2022/09/11 12:58:02;;;;;;;2.63;0.80;;;;;;;;;;5061551;28;20235;-83
2022/09/11 13:00:35;;;;;;;2.05;0.70;;;;;;;;;;5068201;28;20310;-82
2022/09/11 13:03:05;;;;;;;1.48;0.70;;;;;;;;;;5067105;28;20385;-82
2022/09/11 13:05:36;;;;;;;2.05;0.70;;;;;;;;;;5066320;28;20230;-82
2022/09/11 13:08:05;;;;;;;2.30;0.80;;;;;;;;;;5062299;28;20207;-83
2022/09/11 13:10:34;;;;;;;1.10;0.55;;;;;;;;;;5056094;28;20734;-83
2022/09/11 13:13:02;;;;;;;2.08;0.80;;;;;;;;;;5051570;28;20692;-83
2022/09/11 13:15:33;;;;;;;1.20;0.60;;;;;;;;;;5053879;28;20286;-83
2022/09/11 13:18:00;;;;;;;3.15;0.88;;;;;;;;;;5059238;28;20276;-82
2022/09/11 13:20:30;;;;;;;2.15;0.80;;;;;;;;;;5071596;28;20222;-83
2022/09/11 13:23:11;;;;;;;1.40;0.80;;;;;;;;;;5056264;28;20204;-83
2022/09/11 13:25:41;;;;;;;1.40;0.70;;;;;;;;;;5051688;28;20294;-83
2022/09/11 13:28:09;;;;;;;1.60;0.80;;;;;;;;;;5051887;28;20200;-83
2022/09/11 13:30:36;;;;;;;3.60;0.70;;;;;;;;;;5051815;28;20278;-83
2022/09/11 13:33:06;;;;;;;3.38;0.70;;;;;;;;;;5054822;28;20659;-83
2022/09/11 13:35:37;;;;;;;2.28;0.80;;;;;;;;;;5052087;28;20283;-83
2022/09/11 13:38:08;;;;;;;1.20;0.80;;;;;;;;;;5067340;28;20207;-83
2022/09/11 13:40:42;;;;;;;1.35;0.70;;;;;;;;;;5075364;28;20282;-83
2022/09/11 13:43:11;;;;;;;1.85;1.00;;;;;;;;;;5070272;28;20227;-83
2022/09/11 13:45:40;;;;;;;1.95;0.80;;;;;;;;;;5055115;28;20199;-83
2022/09/11 13:48:13;;;;;;;1.70;0.60;;;;;;;;;;5068175;28;20658;-83
2022/09/11 13:50:41;;;;;;;1.25;0.80;;;;;;;;;;5055344;28;20223;-83
2022/09/11 13:53:09;;;;;;;0.77;0.60;;;;;;;;;;5055245;28;20239;-83
2022/09/11 13:55:36;;;;;;;1.17;0.65;;;;;;;;;;5055284;28;20203;-83
2022/09/11 13:58:04;;;;;;;1.55;0.60;;;;;;;;;;5061442;28;20250;-83
2022/09/11 14:00:43;;;;;;;1.38;0.70;;;;;;;;;;5074383;28;20687;-83
2022/09/11 14:03:21;;;;;;;1.08;0.70;;;;;;;;;;5066084;28;20203;-83
2022/09/11 14:05:54;;;;;;;2.30;0.60;;;;;;;;;;5055821;28;20612;-83
2022/09/11 14:08:23;;;;;;;2.50;0.90;;;;;;;;;;5063011;28;20279;-83
2022/09/11 14:10:53;;;;;;;3.80;0.80;;;;;;;;;;5063671;28;20230;-83
2022/09/11 14:13:23;;;;;;;1.55;0.70;;;;;;;;;;5074242;28;20271;-83
2022/09/11 14:15:51;;;;;;;1.13;0.60;;;;;;;;;;5063887;28;20290;-83
2022/09/11 14:18:25;;;;;;;1.17;0.70;;;;;;;;;;5072401;28;20708;-83
2022/09/11 14:20:55;;;;;;;2.00;0.80;;;;;;;;;;5072038;28;20663;-83
2022/09/11 14:23:25;;;;;;;1.10;0.65;;;;;;;;;;5073079;28;20234;-83
2022/09/11 14:26:05;;;;;;;1.75;0.75;;;;;;;;;;5063132;28;20217;-83
2022/09/11 14:28:37;;;;;;;0.95;0.60;;;;;;;;;;5072327;28;20667;-83
2022/09/11 14:31:09;;;;;;;1.67;0.70;;;;;;;;;;5072162;28;20261;-83
2022/09/11 14:33:37;;;;;;;1.50;0.70;;;;;;;;;;5067866;28;20203;-83
2022/09/11 14:36:08;;;;;;;1.45;0.70;;;;;;;;;;5061628;28;20253;-82
2022/09/11 14:38:36;;;;;;;1.42;0.60;;;;;;;;;;5055515;28;20249;-82
2022/09/11 14:41:06;;;;;;;1.65;0.88;;;;;;;;;;5063504;28;20214;-83
2022/09/11 14:43:35;;;;;;;2.15;0.60;;;;;;;;;;5065053;28;20334;-83
2022/09/11 14:46:03;;;;;;;2.00;0.65;;;;;;;;;;5062934;28;20207;-83
2022/09/11 14:48:31;;;;;;;0.95;0.55;;;;;;;;;;5069931;28;20231;-83
2022/09/11 14:50:59;;;;;;;1.48;0.70;;;;;;;;;;5062113;28;20223;-75
2022/09/11 14:53:29;;;;;;;2.45;0.70;;;;;;;;;;5065209;28;20207;-74
2022/09/11 14:55:57;;;;;;;2.42;0.70;;;;;;;;;;5062170;28;20191;-83